Time;durP1;ratioP1;P1;durP2;ratioP2;P2;SDS_P1;SDS_P2;PMS_P1;PMS_P2;Temp;Humidity;BMP_temperature;BMP_pressure;BME280_temperature;BME280_humidity;BME280_pressure;Samples;Min_cycle;Max_cycle;Signal;HPM_P1;HPM_P2
2023/04/30 00:00:11;;;;;;;26.67;16.92;;;;;;;6.77;100.00;102222.59;5031506;28;20536;-46
2023/04/30 00:02:37;;;;;;;25.42;16.02;;;;;;;6.76;100.00;102221.75;5031374;28;20033;-45
2023/04/30 00:05:02;;;;;;;26.00;17.08;;;;;;;6.75;100.00;102220.13;5031523;28;20450;-45
2023/04/30 00:07:27;;;;;;;25.52;16.52;;;;;;;6.75;100.00;102219.25;5031233;28;20025;-46
2023/04/30 00:09:53;;;;;;;26.27;16.33;;;;;;;6.72;100.00;102215.91;5029848;28;20143;-46
2023/04/30 00:12:18;;;;;;;25.23;16.30;;;;;;;6.70;100.00;102209.84;5029869;28;20036;-45
2023/04/30 00:14:43;;;;;;;25.73;16.48;;;;;;;6.72;100.00;102215.91;5031212;28;20033;-46
2023/04/30 00:17:09;;;;;;;24.33;16.67;;;;;;;6.69;100.00;102213.69;5031161;28;20476;-46
2023/04/30 00:19:34;;;;;;;25.58;16.58;;;;;;;6.71;100.00;102221.66;5029612;28;20212;-45
2023/04/30 00:22:04;;;;;;;24.40;15.85;;;;;;;6.69;100.00;102221.94;5031087;28;20480;-45
2023/04/30 00:24:29;;;;;;;24.25;16.38;;;;;;;6.65;100.00;102222.66;5031207;28;20087;-46
2023/04/30 00:26:55;;;;;;;25.02;15.82;;;;;;;6.60;100.00;102217.91;5030820;28;20053;-46
2023/04/30 00:29:20;;;;;;;24.75;16.40;;;;;;;6.60;100.00;102223.41;5030974;28;20036;-45
2023/04/30 00:31:45;;;;;;;26.50;16.10;;;;;;;6.58;100.00;102222.81;5030917;28;20053;-48
2023/04/30 00:34:10;;;;;;;24.80;16.83;;;;;;;6.57;100.00;102223.88;5030927;28;20540;-47
2023/04/30 00:36:36;;;;;;;23.90;16.45;;;;;;;6.51;100.00;102224.88;5030981;28;20044;-45
2023/04/30 00:39:02;;;;;;;26.08;16.75;;;;;;;6.47;100.00;102227.25;5030927;28;20021;-46
2023/04/30 00:41:29;;;;;;;25.25;16.48;;;;;;;6.44;100.00;102230.50;5030757;28;20029;-48
2023/04/30 00:43:54;;;;;;;26.55;16.38;;;;;;;6.41;100.00;102228.22;5030782;28;20037;-46
2023/04/30 00:46:19;;;;;;;23.02;15.85;;;;;;;6.39;100.00;102225.75;5030812;28;20387;-48
2023/04/30 00:48:45;;;;;;;25.20;16.88;;;;;;;6.35;100.00;102218.22;5030756;28;20466;-46
2023/04/30 00:51:10;;;;;;;25.13;16.33;;;;;;;6.38;100.00;102229.56;5030665;28;20128;-46
2023/04/30 00:53:38;;;;;;;23.92;16.20;;;;;;;6.36;100.00;102219.91;5029360;28;20083;-44
2023/04/30 00:56:05;;;;;;;25.02;16.60;;;;;;;6.32;100.00;102236.03;5030727;28;20022;-44
2023/04/30 00:58:30;;;;;;;24.58;16.33;;;;;;;6.31;100.00;102233.53;5030827;28;20079;-45
2023/04/30 01:00:56;;;;;;;24.55;15.52;;;;;;;6.28;100.00;102229.34;5030728;28;20021;-45
2023/04/30 01:03:22;;;;;;;26.48;16.58;;;;;;;6.23;100.00;102227.34;5031362;28;20025;-44
2023/04/30 01:05:47;;;;;;;25.45;16.33;;;;;;;6.19;100.00;102228.06;5034498;28;20073;-45
2023/04/30 01:08:12;;;;;;;24.67;16.73;;;;;;;6.18;100.00;102227.25;5033111;28;20493;-45
2023/04/30 01:10:47;;;;;;;24.77;16.15;;;;;;;6.14;100.00;102223.28;5034406;28;20068;-46
2023/04/30 01:13:30;;;;;;;24.02;16.48;;;;;;;6.13;100.00;102218.06;5034422;28;20037;-47
2023/04/30 01:16:02;;;;;;;25.13;17.27;;;;;;;6.03;100.00;102211.25;5034419;28;20033;-45
2023/04/30 01:18:37;;;;;;;26.13;16.77;;;;;;;6.06;100.00;102223.66;5034989;28;20103;-45
2023/04/30 01:21:06;;;;;;;25.52;16.85;;;;;;;6.03;100.00;102216.75;5034359;28;20036;-46
2023/04/30 01:23:34;;;;;;;24.83;17.05;;;;;;;6.01;100.00;102221.66;5032863;28;20021;-45
2023/04/30 01:26:29;;;;;;;26.00;17.05;;;;;;;5.97;100.00;102217.66;5034258;28;20088;-45
2023/04/30 01:28:56;;;;;;;26.48;16.80;;;;;;;5.93;100.00;102219.25;5034089;28;20049;-44
2023/04/30 01:31:22;;;;;;;25.13;17.13;;;;;;;5.91;100.00;102221.38;5034013;28;20029;-45
2023/04/30 01:33:48;;;;;;;27.42;18.13;;;;;;;5.89;100.00;102223.53;5033989;28;20055;-45
2023/04/30 01:36:40;;;;;;;26.42;17.80;;;;;;;5.88;100.00;102232.84;5033930;28;20113;-44
2023/04/30 01:39:11;;;;;;;24.90;17.52;;;;;;;5.87;100.00;102229.28;5032430;28;20034;-46
2023/04/30 01:42:06;;;;;;;25.75;17.63;;;;;;;5.86;100.00;102237.75;5033912;28;20075;-44
2023/04/30 01:45:16;;;;;;;26.45;17.35;;;;;;;5.86;100.00;102233.09;5033198;28;20050;-45
2023/04/30 01:48:03;;;;;;;27.10;17.98;;;;;;;5.85;100.00;102230.59;5033778;28;20441;-49
2023/04/30 01:50:38;;;;;;;26.58;17.77;;;;;;;5.81;100.00;102235.72;5033770;28;20026;-44
2023/04/30 01:53:10;;;;;;;26.58;18.13;;;;;;;5.79;100.00;102224.16;5033685;28;20041;-44
2023/04/30 01:55:41;;;;;;;25.67;18.02;;;;;;;5.77;100.00;102229.88;5033667;28;20080;-45
2023/04/30 01:58:11;;;;;;;26.67;18.75;;;;;;;5.72;100.00;102234.41;5033738;28;20064;-47
2023/04/30 02:00:36;;;;;;;27.65;17.55;;;;;;;5.70;100.00;102229.16;5032177;28;20029;-46
2023/04/30 02:03:02;;;;;;;26.25;18.45;;;;;;;5.67;100.00;102229.63;5033678;28;20432;-47
2023/04/30 02:05:27;;;;;;;26.08;18.13;;;;;;;5.65;100.00;102228.19;5033586;28;20025;-45
2023/04/30 02:07:53;;;;;;;25.25;17.70;;;;;;;5.63;100.00;102233.94;5033321;28;20038;-46
2023/04/30 02:10:21;;;;;;;27.90;18.73;;;;;;;5.58;100.00;102237.41;5031911;28;20048;-44
2023/04/30 02:12:47;;;;;;;28.48;18.33;;;;;;;5.59;100.00;102238.22;5033105;28;20034;-45
2023/04/30 02:15:12;;;;;;;26.15;18.33;;;;;;;5.56;100.00;102234.06;5031564;28;20021;-47
2023/04/30 02:17:38;;;;;;;27.48;17.90;;;;;;;5.55;100.00;102231.56;5031644;28;20044;-46
2023/04/30 02:20:04;;;;;;;27.08;18.38;;;;;;;5.49;100.00;102232.50;5033077;28;20033;-45
2023/04/30 02:22:30;;;;;;;26.67;18.83;;;;;;;5.51;100.00;102224.84;5032798;28;20587;-44
2023/04/30 02:24:56;;;;;;;26.98;18.23;;;;;;;5.51;100.00;102233.09;5032878;28;20117;-45
2023/04/30 02:27:22;;;;;;;26.23;18.98;;;;;;;5.47;100.00;102233.59;5033002;28;20071;-49
2023/04/30 02:29:48;;;;;;;26.80;18.88;;;;;;;5.45;100.00;102234.88;5032992;28;20436;-47
2023/04/30 02:32:13;;;;;;;26.00;18.10;;;;;;;5.41;100.00;102226.28;5032893;28;20059;-46
2023/04/30 02:34:39;;;;;;;26.40;18.48;;;;;;;5.43;100.00;102231.56;5032821;28;20374;-45
2023/04/30 02:37:05;;;;;;;25.73;18.05;;;;;;;5.41;100.00;102231.78;5032848;28;20061;-45
2023/04/30 02:39:31;;;;;;;25.73;17.98;;;;;;;5.41;100.00;102229.03;5033001;28;20053;-45
2023/04/30 02:41:56;;;;;;;26.27;18.60;;;;;;;5.40;100.00;102232.03;5032729;28;20079;-47
2023/04/30 02:44:21;;;;;;;26.45;18.25;;;;;;;5.37;100.00;102227.84;5032754;28;20362;-48
2023/04/30 02:46:47;;;;;;;27.25;18.58;;;;;;;5.37;100.00;102227.00;5032669;28;20021;-46
2023/04/30 02:49:12;;;;;;;26.58;18.75;;;;;;;5.33;100.00;102214.84;5032594;28;20033;-46
2023/04/30 02:51:37;;;;;;;27.00;19.20;;;;;;;5.33;100.00;102215.66;5032326;28;20497;-44
2023/04/30 02:54:02;;;;;;;27.38;19.50;;;;;;;5.33;100.00;102217.59;5032453;28;20036;-45
2023/04/30 02:56:28;;;;;;;26.73;18.98;;;;;;;5.28;100.00;102223.78;5032570;28;20037;-46
2023/04/30 02:58:53;;;;;;;27.25;19.38;;;;;;;5.27;100.00;102216.63;5032382;28;20048;-44
2023/04/30 03:01:18;;;;;;;28.15;20.20;;;;;;;5.25;100.00;102216.84;5032317;28;20026;-45
2023/04/30 03:03:44;;;;;;;28.00;19.92;;;;;;;5.22;100.00;102217.34;5030898;28;20021;-44
2023/04/30 03:06:09;;;;;;;28.63;20.00;;;;;;;5.20;100.00;102224.09;5032086;28;20556;-45
2023/04/30 03:08:34;;;;;;;28.15;19.38;;;;;;;5.17;100.00;102225.41;5032374;28;20021;-45
2023/04/30 03:11:00;;;;;;;28.35;20.25;;;;;;;5.15;100.00;102217.44;5032164;28;20112;-48
2023/04/30 03:13:25;;;;;;;27.85;20.10;;;;;;;5.11;100.00;102216.22;5032194;28;20029;-46
2023/04/30 03:16:01;;;;;;;27.45;19.80;;;;;;;5.12;100.00;102228.03;5032019;28;20108;-48
2023/04/30 03:18:27;;;;;;;28.63;20.23;;;;;;;5.11;100.00;102223.63;5032050;28;20030;-45
2023/04/30 03:20:53;;;;;;;28.15;20.88;;;;;;;5.07;100.00;102228.75;5031966;28;20029;-46
2023/04/30 03:23:18;;;;;;;28.75;19.95;;;;;;;5.03;100.00;102224.78;5032029;28;20025;-48
2023/04/30 03:25:43;;;;;;;28.45;20.92;;;;;;;4.99;100.00;102223.59;5031411;28;20076;-48
2023/04/30 03:28:08;;;;;;;27.30;19.63;;;;;;;4.97;100.00;102225.75;5031839;28;20080;-45
2023/04/30 03:30:34;;;;;;;29.02;20.13;;;;;;;4.93;100.00;102221.78;5031725;28;20065;-46
2023/04/30 03:32:59;;;;;;;28.58;20.67;;;;;;;4.90;100.00;102225.00;5031814;28;20037;-49
2023/04/30 03:35:24;;;;;;;27.60;19.67;;;;;;;4.88;100.00;102238.13;5031660;28;20121;-45
2023/04/30 03:37:50;;;;;;;27.45;19.67;;;;;;;4.87;100.00;102230.94;5030320;28;20354;-47
2023/04/30 03:40:15;;;;;;;27.92;20.35;;;;;;;4.83;100.00;102234.16;5031542;28;20040;-44
2023/04/30 03:42:40;;;;;;;28.38;20.25;;;;;;;4.81;100.00;102232.72;5031559;28;20381;-45
2023/04/30 03:45:06;;;;;;;29.08;20.20;;;;;;;4.78;100.00;102236.75;5031539;28;20029;-45
2023/04/30 03:47:32;;;;;;;27.52;20.38;;;;;;;4.75;100.00;102233.66;5031469;28;20052;-45
2023/04/30 03:49:57;;;;;;;27.67;20.27;;;;;;;4.72;100.00;102237.72;5031530;28;20025;-45
2023/04/30 03:52:23;;;;;;;28.10;20.42;;;;;;;4.71;100.00;102236.03;5031339;28;20349;-45
2023/04/30 03:54:48;;;;;;;28.98;20.58;;;;;;;4.70;100.00;102239.84;5031439;28;20036;-46
2023/04/30 03:57:14;;;;;;;27.35;19.90;;;;;;;4.71;100.00;102232.44;5029875;28;20482;-45
2023/04/30 03:59:40;;;;;;;29.70;21.05;;;;;;;4.69;100.00;102229.94;5029981;28;20030;-45
2023/04/30 04:02:06;;;;;;;28.55;21.40;;;;;;;4.68;100.00;102234.56;5029887;28;20029;-46
2023/04/30 04:04:32;;;;;;;28.13;21.20;;;;;;;4.66;100.00;102235.88;5031076;28;20496;-46
2023/04/30 04:06:58;;;;;;;29.10;20.95;;;;;;;4.65;100.00;102235.06;5030950;28;20033;-48
2023/04/30 04:09:23;;;;;;;28.42;20.80;;;;;;;4.64;100.00;102238.84;5031203;28;20710;-47
2023/04/30 04:11:49;;;;;;;28.45;20.83;;;;;;;4.63;100.00;102237.19;5029646;28;20029;-44
2023/04/30 04:14:15;;;;;;;29.00;20.58;;;;;;;4.66;100.00;102233.13;5031132;28;20134;-46
2023/04/30 04:16:41;;;;;;;29.38;20.25;;;;;;;4.66;100.00;102227.66;5030857;28;20450;-46
2023/04/30 04:19:06;;;;;;;28.02;19.50;;;;;;;4.68;100.00;102233.75;5030947;28;20132;-45
2023/04/30 04:21:32;;;;;;;31.85;20.55;;;;;;;4.65;100.00;102235.06;5029635;28;20469;-44
2023/04/30 04:23:57;;;;;;;30.23;19.85;;;;;;;4.65;100.00;102242.41;5031110;28;20037;-44
2023/04/30 04:26:24;;;;;;;27.75;18.23;;;;;;;4.63;100.00;102239.09;5030876;28;20053;-45
2023/04/30 04:28:50;;;;;;;27.83;19.23;;;;;;;4.62;100.00;102237.44;5031325;28;20029;-49
2023/04/30 04:31:16;;;;;;;29.45;19.95;;;;;;;4.61;100.00;102236.56;5030937;28;20048;-47
2023/04/30 04:33:41;;;;;;;30.17;19.58;;;;;;;4.58;100.00;102237.03;5030967;28;20362;-45
2023/04/30 04:36:07;;;;;;;27.85;19.33;;;;;;;4.62;100.00;102240.16;5030914;28;20021;-46
2023/04/30 04:38:32;;;;;;;27.95;18.08;;;;;;;4.63;100.00;102244.59;5032070;28;20022;-46
2023/04/30 04:40:58;;;;;;;27.50;18.48;;;;;;;4.66;100.00;102244.94;5033564;28;20131;-47
2023/04/30 04:43:23;;;;;;;28.50;18.98;;;;;;;4.71;100.00;102247.00;5034981;28;20034;-45
2023/04/30 04:45:49;;;;;;;27.73;17.73;;;;;;;4.74;100.00;102248.44;5034953;28;20029;-46
2023/04/30 04:48:14;;;;;;;29.23;20.17;;;;;;;4.74;100.00;102248.44;5034923;28;20033;-49
2023/04/30 04:50:39;;;;;;;29.17;19.60;;;;;;;4.77;100.00;102242.50;5034787;28;20116;-46
2023/04/30 04:53:05;;;;;;;27.48;18.95;;;;;;;4.78;100.00;102249.63;5034710;28;20026;-46
2023/04/30 04:55:30;;;;;;;28.67;19.67;;;;;;;4.81;100.00;102257.41;5034731;28;20040;-45
2023/04/30 04:57:56;;;;;;;28.55;18.70;;;;;;;4.84;100.00;102256.94;5034794;28;20783;-45
2023/04/30 05:00:22;;;;;;;28.50;19.17;;;;;;;4.90;100.00;102250.50;5033192;28;20801;-46
2023/04/30 05:02:47;;;;;;;29.35;19.00;;;;;;;4.97;100.00;102255.91;5034672;28;20485;-47
2023/04/30 05:05:12;;;;;;;28.90;20.08;;;;;;;5.05;100.00;102257.50;5034580;28;20043;-45
2023/04/30 05:07:38;;;;;;;30.02;19.95;;;;;;;5.10;100.00;102252.94;5034788;28;20511;-46
2023/04/30 05:10:05;;;;;;;28.25;19.60;;;;;;;5.17;100.00;102263.81;5034542;28;20132;-44
2023/04/30 05:12:30;;;;;;;29.48;20.90;;;;;;;5.24;100.00;102258.25;5034372;28;20021;-44
2023/04/30 05:14:55;;;;;;;28.35;20.35;;;;;;;5.29;100.00;102263.88;5034397;28;20401;-47
2023/04/30 05:17:20;;;;;;;32.42;20.48;;;;;;;5.33;100.00;102273.28;5034108;28;20152;-46
2023/04/30 05:19:47;;;;;;;29.02;19.70;;;;;;;5.40;100.00;102264.97;5033014;28;20444;-45
2023/04/30 05:22:13;;;;;;;28.55;20.50;;;;;;;5.43;100.00;102270.81;5034239;28;20413;-45
2023/04/30 05:24:38;;;;;;;30.58;20.30;;;;;;;5.54;100.00;102271.06;5034182;28;20029;-45
2023/04/30 05:27:04;;;;;;;29.98;21.10;;;;;;;5.57;100.00;102265.94;5033936;28;20168;-45
2023/04/30 05:29:29;;;;;;;30.55;21.05;;;;;;;5.63;100.00;102253.16;5033926;28;20445;-45
2023/04/30 05:31:55;;;;;;;29.00;20.63;;;;;;;5.71;100.00;102261.03;5032445;28;20362;-48
2023/04/30 05:34:20;;;;;;;29.33;21.77;;;;;;;5.77;100.00;102262.00;5033952;28;20393;-48
2023/04/30 05:36:45;;;;;;;29.40;21.52;;;;;;;5.81;100.00;102262.34;5034002;28;20463;-44
2023/04/30 05:39:11;;;;;;;31.17;21.92;;;;;;;5.84;100.00;102257.22;5033853;28;20025;-45
2023/04/30 05:41:36;;;;;;;31.27;22.40;;;;;;;5.91;100.00;102254.34;5033676;28;20026;-47
2023/04/30 05:44:03;;;;;;;31.30;22.95;;;;;;;5.94;100.00;102262.94;5033884;28;20032;-45
2023/04/30 05:46:29;;;;;;;31.98;21.95;;;;;;;6.04;100.00;102267.03;5033837;28;20473;-45
2023/04/30 05:48:54;;;;;;;30.83;22.80;;;;;;;6.09;100.00;102257.00;5033207;28;20029;-46
2023/04/30 05:51:20;;;;;;;30.02;22.48;;;;;;;6.18;100.00;102256.63;5033529;28;20076;-47
2023/04/30 05:53:45;;;;;;;30.67;22.23;;;;;;;6.24;100.00;102255.63;5033622;28;20365;-46
2023/04/30 05:56:11;;;;;;;29.33;21.30;;;;;;;6.34;100.00;102266.03;5033613;28;20493;-46
2023/04/30 05:58:37;;;;;;;29.42;21.65;;;;;;;6.43;100.00;102256.31;5033648;28;20160;-48
2023/04/30 06:01:02;;;;;;;30.42;22.10;;;;;;;6.51;100.00;102250.44;5033405;28;20032;-46
2023/04/30 06:03:28;;;;;;;28.42;21.10;;;;;;;6.59;100.00;102254.72;5033491;28;20405;-51
2023/04/30 06:05:53;;;;;;;29.98;21.20;;;;;;;6.66;100.00;102249.09;5033416;28;20030;-48
2023/04/30 06:08:18;;;;;;;28.85;20.92;;;;;;;6.75;100.00;102249.50;5033392;28;20026;-49
2023/04/30 06:10:44;;;;;;;28.95;21.23;;;;;;;6.81;100.00;102248.53;5033129;28;20029;-49
2023/04/30 06:13:09;;;;;;;30.25;20.92;;;;;;;6.87;100.00;102245.63;5033449;28;20111;-48
2023/04/30 06:15:35;;;;;;;27.80;19.98;;;;;;;6.95;100.00;102252.66;5031787;28;20477;-47
2023/04/30 06:18:00;;;;;;;29.25;20.65;;;;;;;7.04;100.00;102244.81;5033185;28;20029;-46
2023/04/30 06:20:26;;;;;;;27.38;20.40;;;;;;;7.11;100.00;102247.41;5033200;28;20156;-45
2023/04/30 06:22:51;;;;;;;27.90;18.90;;;;;;;7.20;100.00;102250.59;5033231;28;20064;-44
2023/04/30 06:25:17;;;;;;;24.77;18.65;;;;;;;7.29;100.00;102244.44;5033005;28;20543;-47
2023/04/30 06:27:42;;;;;;;27.25;17.80;;;;;;;7.38;100.00;102244.84;5032910;28;20057;-44
2023/04/30 06:30:08;;;;;;;26.95;18.38;;;;;;;7.45;100.00;102242.78;5032801;28;20104;-46
2023/04/30 06:32:33;;;;;;;26.08;18.30;;;;;;;7.55;100.00;102241.25;5032932;28;20032;-47
2023/04/30 06:34:59;;;;;;;27.15;17.90;;;;;;;7.62;100.00;102245.53;5032817;28;20017;-47
2023/04/30 06:37:24;;;;;;;29.20;18.80;;;;;;;7.71;100.00;102245.91;5032883;28;20040;-45
2023/04/30 06:39:50;;;;;;;25.27;17.50;;;;;;;7.79;100.00;102251.00;5032801;28;20045;-46
2023/04/30 06:42:16;;;;;;;26.05;17.63;;;;;;;7.88;100.00;102248.66;5032857;28;20079;-47
2023/04/30 06:44:41;;;;;;;25.08;17.67;;;;;;;7.95;100.00;102254.81;5031387;28;20025;-46
2023/04/30 06:47:06;;;;;;;25.23;17.92;;;;;;;8.02;100.00;102253.81;5032743;28;20041;-45
2023/04/30 06:49:31;;;;;;;24.83;17.63;;;;;;;8.08;100.00;102261.88;5032773;28;20481;-45
2023/04/30 06:51:57;;;;;;;25.02;17.98;;;;;;;8.15;100.00;102261.69;5031160;28;20503;-46
2023/04/30 06:54:25;;;;;;;24.73;18.15;;;;;;;8.25;100.00;102266.53;5032589;28;20108;-45
2023/04/30 06:56:51;;;;;;;26.30;18.30;;;;;;;8.34;100.00;102261.38;5032575;28;20053;-45
2023/04/30 06:59:16;;;;;;;25.77;17.95;;;;;;;8.40;100.00;102263.97;5032556;28;20545;-49
2023/04/30 07:01:42;;;;;;;25.50;17.05;;;;;;;8.46;100.00;102255.72;5031374;28;20546;-45
2023/04/30 07:04:07;;;;;;;25.13;17.65;;;;;;;8.53;100.00;102270.22;5032453;28;20048;-47
2023/04/30 07:06:32;;;;;;;25.48;18.10;;;;;;;8.57;100.00;102254.81;5032334;28;20095;-45
2023/04/30 07:08:58;;;;;;;27.13;18.15;;;;;;;8.64;100.00;102255.47;5032230;28;20101;-46
2023/04/30 07:11:23;;;;;;;26.60;18.85;;;;;;;8.71;100.00;102253.31;5032142;28;20037;-48
2023/04/30 07:13:48;;;;;;;27.50;18.48;;;;;;;8.81;100.00;102254.53;5032233;28;20440;-47
2023/04/30 07:16:15;;;;;;;26.27;17.90;;;;;;;8.89;100.00;102251.31;5030690;28;20083;-46
2023/04/30 07:18:41;;;;;;;24.95;18.10;;;;;;;8.92;100.00;102256.31;5032199;28;20029;-47
2023/04/30 07:21:07;;;;;;;26.98;18.98;;;;;;;8.96;100.00;102246.41;5031867;28;20063;-47
2023/04/30 07:23:33;;;;;;;25.55;18.27;;;;;;;9.01;100.00;102259.41;5031865;28;20446;-45
2023/04/30 07:25:58;;;;;;;25.95;18.15;;;;;;;9.03;100.00;102252.53;5031825;28;20033;-50
2023/04/30 07:28:23;;;;;;;25.25;18.10;;;;;;;9.13;100.00;102257.34;5031735;28;20525;-45
2023/04/30 07:30:48;;;;;;;25.55;18.25;;;;;;;9.21;100.00;102256.84;5031515;28;20037;-46
2023/04/30 07:33:14;;;;;;;25.65;17.88;;;;;;;9.31;100.00;102260.81;5030519;28;20482;-45
2023/04/30 07:35:39;;;;;;;26.98;18.33;;;;;;;9.39;100.00;102257.56;5031859;28;20116;-50
2023/04/30 07:38:04;;;;;;;26.15;18.23;;;;;;;9.50;100.00;102253.78;5031786;28;20482;-47
2023/04/30 07:40:30;;;;;;;25.55;18.40;;;;;;;9.54;99.76;102250.50;5031612;28;20099;-48
2023/04/30 07:42:55;;;;;;;26.17;18.33;;;;;;;9.60;99.96;102255.78;5031795;28;20071;-47
2023/04/30 07:45:20;;;;;;;26.23;17.95;;;;;;;9.68;100.00;102244.22;5031691;28;20469;-45
2023/04/30 07:47:46;;;;;;;25.92;17.88;;;;;;;9.78;99.66;102246.25;5031615;28;20432;-45
2023/04/30 07:50:13;;;;;;;25.30;17.73;;;;;;;9.90;99.65;102256.28;5031462;28;20436;-49
2023/04/30 07:52:39;;;;;;;25.05;18.10;;;;;;;10.00;99.10;102248.03;5031376;28;20389;-45
2023/04/30 07:55:04;;;;;;;27.38;18.27;;;;;;;10.08;98.44;102249.44;5031474;28;20033;-46
2023/04/30 07:57:30;;;;;;;27.70;18.90;;;;;;;10.14;97.79;102253.91;5031560;28;20032;-45
2023/04/30 07:59:56;;;;;;;25.75;17.77;;;;;;;10.17;98.32;102253.38;5031453;28;20128;-45
2023/04/30 08:02:21;;;;;;;24.35;17.25;;;;;;;10.23;97.12;102251.47;5029998;28;20511;-48
2023/04/30 08:04:47;;;;;;;24.67;17.10;;;;;;;10.30;96.58;102258.41;5031408;28;20033;-46
2023/04/30 08:07:14;;;;;;;26.05;18.20;;;;;;;10.39;97.27;102253.22;5031537;28;20032;-47
2023/04/30 08:09:40;;;;;;;26.40;18.75;;;;;;;10.52;97.77;102251.91;5031389;28;20021;-45
2023/04/30 08:12:05;;;;;;;25.70;17.50;;;;;;;10.60;96.86;102256.91;5031154;28;20028;-46
2023/04/30 08:14:31;;;;;;;27.70;18.02;;;;;;;10.70;96.13;102258.88;5029825;28;20036;-46
2023/04/30 08:16:58;;;;;;;25.17;17.45;;;;;;;10.73;94.90;102268.56;5031280;28;20032;-45
2023/04/30 08:19:23;;;;;;;25.60;17.38;;;;;;;10.80;93.59;102265.53;5031257;28;20041;-45
2023/04/30 08:21:49;;;;;;;24.67;17.20;;;;;;;10.82;93.24;102269.69;5031229;28;20392;-46
2023/04/30 08:24:14;;;;;;;25.55;18.10;;;;;;;10.89;92.92;102273.06;5031280;28;20041;-45
2023/04/30 08:26:40;;;;;;;27.23;17.92;;;;;;;11.01;94.09;102266.41;5029777;28;20049;-46
2023/04/30 08:29:07;;;;;;;25.88;17.77;;;;;;;11.10;93.08;102261.16;5031078;28;20148;-46
2023/04/30 08:31:32;;;;;;;25.85;18.55;;;;;;;11.25;93.96;102258.41;5031048;28;20350;-45
2023/04/30 08:33:58;;;;;;;25.13;17.60;;;;;;;11.37;92.94;102258.97;5031168;28;20040;-46
2023/04/30 08:36:23;;;;;;;25.95;16.45;;;;;;;11.43;89.52;102265.34;5031073;28;20033;-49
2023/04/30 08:38:48;;;;;;;25.02;16.58;;;;;;;11.43;88.18;102267.28;5031133;28;20022;-48
2023/04/30 08:41:17;;;;;;;24.23;16.20;;;;;;;11.51;89.10;102263.97;5030906;28;20064;-47
2023/04/30 08:43:43;;;;;;;25.27;17.08;;;;;;;11.64;88.76;102257.84;5031070;28;20063;-45
2023/04/30 08:46:12;;;;;;;25.02;17.02;;;;;;;11.70;87.58;102258.66;5031174;28;20039;-45
2023/04/30 08:48:38;;;;;;;24.75;17.33;;;;;;;11.84;88.40;102251.44;5031223;28;20079;-45
2023/04/30 08:51:03;;;;;;;26.13;18.08;;;;;;;11.97;89.13;102247.28;5030756;28;20085;-45
2023/04/30 08:53:30;;;;;;;25.77;17.90;;;;;;;12.04;87.58;102273.88;5030994;28;20036;-46
2023/04/30 08:55:56;;;;;;;25.35;17.77;;;;;;;12.01;86.47;102253.09;5030780;28;20033;-45
2023/04/30 08:58:21;;;;;;;24.08;16.65;;;;;;;12.11;86.27;102255.84;5030732;28;20044;-50
2023/04/30 09:00:46;;;;;;;23.48;16.80;;;;;;;12.21;84.87;102254.16;5030644;28;20485;-51
2023/04/30 09:03:12;;;;;;;24.75;17.52;;;;;;;12.22;84.91;102259.41;5030726;28;20025;-48
2023/04/30 09:05:37;;;;;;;25.48;17.38;;;;;;;12.17;84.13;102257.47;5030546;28;20052;-47
2023/04/30 09:08:03;;;;;;;24.63;17.02;;;;;;;12.20;83.96;102247.75;5029162;28;20023;-45
2023/04/30 09:10:32;;;;;;;26.13;17.42;;;;;;;12.25;83.52;102239.44;5030446;28;20052;-45
2023/04/30 09:13:06;;;;;;;23.40;16.45;;;;;;;12.33;83.11;102244.38;5030836;28;20088;-49
2023/04/30 09:15:34;;;;;;;24.77;16.63;;;;;;;12.52;83.01;102238.19;5030786;28;20030;-45
2023/04/30 09:18:07;;;;;;;24.02;16.23;;;;;;;12.58;81.38;102244.56;5030709;28;20025;-45
2023/04/30 09:20:33;;;;;;;;;;;;;;;12.67;81.48;102242.84;5030894;28;20060;-47
2023/04/30 09:23:09;;;;;;;25.73;18.10;;;;;;;12.68;81.72;102255.63;5030557;28;19909;-48
2023/04/30 09:25:40;;;;;;;25.33;17.33;;;;;;;12.73;80.41;102238.91;5032993;28;20037;-46
2023/04/30 09:28:10;;;;;;;23.25;16.13;;;;;;;12.84;79.70;102245.25;5034066;28;20052;-46
2023/04/30 09:30:36;;;;;;;24.77;16.23;;;;;;;12.83;78.08;102239.97;5032685;28;20059;-45
2023/04/30 09:33:02;;;;;;;24.88;16.70;;;;;;;12.86;78.51;102234.66;5034228;28;20136;-48
2023/04/30 09:35:29;;;;;;;24.15;15.82;;;;;;;12.97;77.39;102243.78;5033954;28;20037;-47
2023/04/30 09:37:54;;;;;;;21.08;14.57;;;;;;;13.07;76.58;102237.31;5033822;28;20465;-46
2023/04/30 09:40:31;;;;;;;20.95;12.82;;;;;;;13.17;74.95;102228.06;5032494;28;20067;-46
2023/04/30 09:42:58;;;;;;;22.50;14.32;;;;;;;13.27;75.49;102219.66;5033899;28;20040;-46
2023/04/30 09:45:24;;;;;;;21.65;14.27;;;;;;;13.32;74.76;102225.16;5033756;28;20053;-50
2023/04/30 09:47:51;;;;;;;38.67;16.13;;;;;;;13.45;74.07;102225.66;5033652;28;20064;-46
2023/04/30 09:50:17;;;;;;;21.48;13.20;;;;;;;13.53;73.97;102230.56;5033623;28;20049;-45
2023/04/30 09:52:51;;;;;;;20.73;13.70;;;;;;;13.64;73.36;102218.22;5033634;28;20034;-45
2023/04/30 09:55:17;;;;;;;21.98;13.85;;;;;;;13.80;74.10;102220.84;5033805;28;20056;-48
2023/04/30 09:57:42;;;;;;;20.55;13.95;;;;;;;13.95;72.62;102225.41;5033555;28;20060;-47
2023/04/30 10:00:09;;;;;;;22.90;13.52;;;;;;;14.07;72.93;102217.50;5033635;28;20112;-46
2023/04/30 10:02:36;;;;;;;21.10;13.13;;;;;;;14.19;71.86;102212.31;5032140;28;20033;-47
2023/04/30 10:05:03;;;;;;;21.58;12.20;;;;;;;14.24;69.10;102216.16;5031998;28;20042;-45
2023/04/30 10:07:35;;;;;;;18.88;12.40;;;;;;;14.20;69.27;102218.72;5033441;28;20067;-47
2023/04/30 10:10:19;;;;;;;20.90;13.07;;;;;;;14.30;72.52;102217.75;5033472;28;20029;-48
2023/04/30 10:12:55;;;;;;;20.13;12.63;;;;;;;14.41;70.72;102210.94;5033341;28;20393;-50
2023/04/30 10:15:25;;;;;;;20.33;12.27;;;;;;;14.41;68.95;102207.28;5033369;28;20061;-48
2023/04/30 10:17:59;;;;;;;20.35;11.85;;;;;;;14.34;69.13;102207.69;5033467;28;20029;-45
2023/04/30 10:20:25;;;;;;;21.83;12.85;;;;;;;14.39;69.52;102206.78;5033266;28;20111;-45
2023/04/30 10:22:52;;;;;;;20.38;12.85;;;;;;;14.23;68.21;102206.16;5033170;28;20025;-47
2023/04/30 10:25:18;;;;;;;21.65;13.50;;;;;;;14.34;70.28;102210.47;5033141;28;20125;-49
2023/04/30 10:27:44;;;;;;;21.15;12.73;;;;;;;14.49;70.28;102204.69;5032792;28;20413;-47
2023/04/30 10:30:11;;;;;;;20.00;12.45;;;;;;;14.58;68.91;102212.38;5033049;28;20047;-46
2023/04/30 10:33:19;;;;;;;20.15;12.20;;;;;;;14.53;68.82;102191.00;5033083;28;20031;-47
2023/04/30 10:35:52;;;;;;;21.88;12.80;;;;;;;14.49;68.47;102189.94;5031898;28;20049;-47
2023/04/30 10:38:21;;;;;;;22.35;13.10;;;;;;;14.48;68.34;102189.09;5031690;28;20064;-47
2023/04/30 10:40:47;;;;;;;19.70;12.25;;;;;;;14.64;68.12;102194.47;5032856;28;20108;-46
2023/04/30 10:43:12;;;;;;;19.13;11.82;;;;;;;14.89;68.89;102179.34;5032855;28;20109;-45
2023/04/30 10:45:45;;;;;;;20.55;12.70;;;;;;;14.97;67.11;102177.81;5032713;28;20473;-44
2023/04/30 10:48:14;;;;;;;20.13;12.73;;;;;;;15.13;68.20;102173.63;5032464;28;20045;-46
2023/04/30 10:50:43;;;;;;;21.48;13.30;;;;;;;15.17;67.84;102171.06;5032398;28;20021;-47
2023/04/30 10:53:16;;;;;;;19.58;12.27;;;;;;;15.16;66.13;102171.38;5031845;28;20033;-45
2023/04/30 10:55:52;;;;;;;20.55;12.10;;;;;;;15.33;66.91;102170.81;5032472;28;20060;-49
2023/04/30 10:58:24;;;;;;;19.30;12.27;;;;;;;15.46;65.17;102166.41;5032488;28;20551;-48
2023/04/30 11:00:59;;;;;;;21.17;12.45;;;;;;;15.54;64.31;102155.34;5032374;28;20029;-47
2023/04/30 11:03:25;;;;;;;19.80;11.57;;;;;;;15.66;63.29;102163.22;5031638;28;20037;-45
2023/04/30 11:05:50;;;;;;;19.13;11.77;;;;;;;15.72;62.77;102153.59;5032187;28;20025;-46
2023/04/30 11:08:15;;;;;;;19.75;12.05;;;;;;;15.86;64.91;102152.81;5032215;28;20026;-46